Time;durP1;ratioP1;P1;durP2;ratioP2;P2;SDS_P1;SDS_P2;PMS_P1;PMS_P2;Temp;Humidity;BMP_temperature;BMP_pressure;BME280_temperature;BME280_humidity;BME280_pressure;Samples;Min_cycle;Max_cycle;Signal;HPM_P1;HPM_P2
2021/04/30 00:01:23;;;;;;;0.98;0.20;;;13.00;49.30;;;;;;4996878;28;20035;-77
2021/04/30 00:03:49;;;;;;;0.50;0.20;;;13.00;49.40;;;;;;4991379;28;20480;-77
2021/04/30 00:06:15;;;;;;;0.00;0.00;;;12.90;49.50;;;;;;4991976;28;20034;-77
2021/04/30 00:08:41;;;;;;;1.00;0.60;;;12.90;49.70;;;;;;4993439;28;20494;-77
2021/04/30 00:11:07;;;;;;;1.17;0.43;;;12.80;49.80;;;;;;5003154;28;20042;-77
2021/04/30 00:13:37;;;;;;;1.80;0.38;;;12.80;49.80;;;;;;5017386;28;20045;-77
2021/04/30 00:16:04;;;;;;;0.50;0.15;;;12.80;50.00;;;;;;4991169;28;20039;-76
2021/04/30 00:18:30;;;;;;;0.50;0.20;;;12.70;49.90;;;;;;4988229;28;20053;-76
2021/04/30 00:20:58;;;;;;;0.45;0.35;;;12.70;50.00;;;;;;4990936;28;20049;-77
2021/04/30 00:23:27;;;;;;;1.75;0.40;;;12.60;50.00;;;;;;5018884;28;20447;-75
2021/04/30 00:25:54;;;;;;;0.13;0.10;;;12.60;50.10;;;;;;4987264;28;20050;-77
2021/04/30 00:28:20;;;;;;;0.40;0.25;;;12.60;50.30;;;;;;4984110;28;20058;-77
2021/04/30 00:30:46;;;;;;;2.33;0.35;;;12.50;50.20;;;;;;4988195;28;20041;-76
2021/04/30 00:33:12;;;;;;;0.68;0.30;;;12.50;50.30;;;;;;4989590;28;20030;-76
2021/04/30 00:35:38;;;;;;;0.77;0.40;;;12.50;50.30;;;;;;5006005;28;20041;-76
2021/04/30 00:38:05;;;;;;;0.40;0.17;;;12.50;50.30;;;;;;5011967;28;20034;-76
2021/04/30 00:40:31;;;;;;;1.73;0.70;;;12.50;50.30;;;;;;4982846;28;20047;-76
2021/04/30 00:42:57;;;;;;;1.08;0.22;;;12.50;50.30;;;;;;4979923;28;20132;-75
2021/04/30 00:45:23;;;;;;;3.22;0.40;;;12.50;50.30;;;;;;4978753;28;20041;-75
2021/04/30 00:47:50;;;;;;;5.00;0.10;;;12.50;50.50;;;;;;4990134;28;20026;-75
2021/04/30 00:50:16;;;;;;;1.08;0.73;;;12.40;50.50;;;;;;4988506;28;20238;-76
2021/04/30 00:52:42;;;;;;;1.33;0.52;;;12.40;50.70;;;;;;5000310;28;20039;-76
2021/04/30 00:55:10;;;;;;;0.30;0.17;;;12.30;50.70;;;;;;4983722;28;20037;-75
2021/04/30 00:57:37;;;;;;;0.28;0.10;;;12.30;50.80;;;;;;4985575;28;20031;-76
2021/04/30 01:00:04;;;;;;;0.93;0.40;;;12.30;50.80;;;;;;4986379;28;20041;-75
2021/04/30 01:02:30;;;;;;;2.70;0.82;;;12.30;50.90;;;;;;4987581;28;20122;-76
2021/04/30 01:04:58;;;;;;;0.90;0.13;;;12.30;50.80;;;;;;5013274;28;20057;-76
2021/04/30 01:07:24;;;;;;;11.65;0.55;;;12.30;50.80;;;;;;5001840;28;20026;-76
2021/04/30 01:09:50;;;;;;;3.17;0.63;;;12.30;50.80;;;;;;4988551;28;20026;-74
2021/04/30 01:12:17;;;;;;;0.35;0.20;;;12.30;50.80;;;;;;4977745;28;20396;-74
2021/04/30 01:14:44;;;;;;;0.25;0.00;;;12.30;50.90;;;;;;4990711;28;20030;-75
2021/04/30 01:17:10;;;;;;;1.45;0.40;;;12.20;50.80;;;;;;4983876;28;20503;-75
2021/04/30 01:19:36;;;;;;;0.38;0.10;;;12.20;50.80;;;;;;4989013;28;20030;-75
2021/04/30 01:22:02;;;;;;;2.72;0.57;;;12.20;50.90;;;;;;4989514;28;20042;-76
2021/04/30 01:24:28;;;;;;;1.42;0.40;;;12.20;50.90;;;;;;4987959;28;20412;-75
2021/04/30 01:26:54;;;;;;;3.35;0.57;;;12.20;50.90;;;;;;5002824;28;20396;-74
2021/04/30 01:29:21;;;;;;;1.35;0.20;;;12.20;50.80;;;;;;4988598;28;20034;-75
2021/04/30 01:31:47;;;;;;;0.15;0.05;;;12.20;50.90;;;;;;4979310;28;20039;-76
2021/04/30 01:34:13;;;;;;;2.13;0.30;;;12.20;51.00;;;;;;4984945;28;20468;-76
2021/04/30 01:36:39;;;;;;;2.75;1.05;;;12.10;51.10;;;;;;4988621;28;20046;-76
2021/04/30 01:39:07;;;;;;;0.35;0.20;;;12.00;51.20;;;;;;4990961;28;20571;-75
2021/04/30 01:41:34;;;;;;;1.60;0.68;;;12.00;51.30;;;;;;4984228;28;20081;-76
2021/04/30 01:44:00;;;;;;;1.52;0.20;;;11.90;51.30;;;;;;5014902;28;20070;-76
2021/04/30 01:46:27;;;;;;;0.40;0.15;;;11.90;51.40;;;;;;4985822;28;20035;-75
2021/04/30 01:48:53;;;;;;;0.82;0.15;;;11.90;51.50;;;;;;4982870;28;20031;-76
2021/04/30 01:51:19;;;;;;;0.80;0.20;;;11.80;51.60;;;;;;4987106;28;20023;-77
2021/04/30 01:53:45;;;;;;;1.15;0.32;;;11.80;51.70;;;;;;4983056;28;20042;-75
2021/04/30 01:56:15;;;;;;;0.40;0.30;;;11.70;52.00;;;;;;4988591;28;20022;-75
2021/04/30 01:58:41;;;;;;;8.52;0.68;;;11.70;51.70;;;;;;4994575;28;20046;-75
2021/04/30 02:01:08;;;;;;;0.82;0.43;;;11.70;51.70;;;;;;4998938;28;20509;-75
2021/04/30 02:03:34;;;;;;;7.32;0.90;;;11.70;51.70;;;;;;5018194;28;20446;-75
2021/04/30 02:06:00;;;;;;;0.80;0.50;;;11.60;51.70;;;;;;5012768;28;20034;-75
2021/04/30 02:08:27;;;;;;;0.08;0.00;;;11.60;51.80;;;;;;5003077;28;20483;-75
2021/04/30 02:10:53;;;;;;;0.10;0.00;;;11.60;51.90;;;;;;5018843;28;20045;-75
2021/04/30 02:13:20;;;;;;;0.73;0.43;;;11.60;51.80;;;;;;5003514;28;20037;-75
2021/04/30 02:15:47;;;;;;;1.20;0.40;;;11.60;51.80;;;;;;5032015;28;20030;-75
2021/04/30 02:18:13;;;;;;;1.02;0.38;;;11.50;51.90;;;;;;4981439;28;20042;-76
2021/04/30 02:20:40;;;;;;;0.40;0.20;;;11.50;52.00;;;;;;4996255;28;20384;-75
2021/04/30 02:23:06;;;;;;;0.45;0.20;;;11.40;52.00;;;;;;5000968;28;20045;-75
2021/04/30 02:25:33;;;;;;;1.95;0.35;;;11.40;52.00;;;;;;5009541;28;20383;-75
2021/04/30 02:27:59;;;;;;;1.30;0.40;;;11.40;52.10;;;;;;5003412;28;20506;-75
2021/04/30 02:30:26;;;;;;;0.90;0.22;;;11.40;52.10;;;;;;5029828;28;20033;-75
2021/04/30 02:32:52;;;;;;;1.00;0.38;;;11.40;52.10;;;;;;5013499;28;20037;-75
2021/04/30 02:35:23;;;;;;;1.30;0.32;;;11.40;52.30;;;;;;5010306;28;20483;-75
2021/04/30 02:37:49;;;;;;;0.60;0.20;;;11.40;52.40;;;;;;5013678;28;20029;-74
2021/04/30 02:40:16;;;;;;;0.75;0.32;;;11.40;52.40;;;;;;5006885;28;20478;-74
2021/04/30 02:42:45;;;;;;;0.40;0.10;;;11.40;52.30;;;;;;5013574;28;20046;-76
2021/04/30 02:45:13;;;;;;;0.52;0.20;;;11.40;52.30;;;;;;5004654;28;20037;-74
2021/04/30 02:47:40;;;;;;;1.75;0.45;;;11.40;52.30;;;;;;5013521;28;20471;-75
2021/04/30 02:50:07;;;;;;;0.95;0.28;;;11.40;52.40;;;;;;5022544;28;20080;-75
2021/04/30 02:52:33;;;;;;;0.65;0.43;;;11.30;52.40;;;;;;5040870;28;20057;-75
2021/04/30 02:54:59;;;;;;;1.50;0.70;;;11.40;52.50;;;;;;5017477;28;20041;-75
2021/04/30 02:57:27;;;;;;;1.27;0.30;;;11.30;52.50;;;;;;5020957;28;20026;-75
2021/04/30 02:59:53;;;;;;;0.88;0.75;;;11.30;52.50;;;;;;5013870;28;20034;-75
2021/04/30 03:02:19;;;;;;;0.90;0.25;;;11.30;52.50;;;;;;5032341;28;20423;-75
2021/04/30 03:04:46;;;;;;;0.73;0.22;;;11.30;52.50;;;;;;5039140;28;20041;-75
2021/04/30 03:07:12;;;;;;;1.10;0.30;;;11.20;52.70;;;;;;5010485;28;20030;-75
2021/04/30 03:09:38;;;;;;;3.30;0.38;;;11.20;52.60;;;;;;5012088;28;20026;-76
2021/04/30 03:12:04;;;;;;;1.48;0.43;;;11.20;52.60;;;;;;5011820;28;20509;-75
2021/04/30 03:14:30;;;;;;;1.45;0.45;;;11.20;52.60;;;;;;5010925;28;20037;-75
2021/04/30 03:16:56;;;;;;;4.18;1.65;;;11.20;52.60;;;;;;5012523;28;20033;-76
2021/04/30 03:19:23;;;;;;;0.20;0.03;;;11.20;52.60;;;;;;5005813;28;20030;-75
2021/04/30 03:21:49;;;;;;;1.33;0.70;;;11.20;52.60;;;;;;5041041;28;20027;-74
2021/04/30 03:24:15;;;;;;;3.35;0.70;;;11.20;52.60;;;;;;5010054;28;20057;-75
2021/04/30 03:26:41;;;;;;;2.67;0.57;;;11.20;52.70;;;;;;5013457;28;20463;-75
2021/04/30 03:29:07;;;;;;;0.65;0.20;;;11.20;52.60;;;;;;5003714;28;20033;-75
2021/04/30 03:31:33;;;;;;;0.63;0.17;;;11.20;52.60;;;;;;5006968;28;20030;-76
2021/04/30 03:33:59;;;;;;;0.75;0.30;;;11.20;52.70;;;;;;5007894;28;20026;-75
2021/04/30 03:36:26;;;;;;;2.17;0.38;;;11.20;52.80;;;;;;5010225;28;20498;-75
2021/04/30 03:38:52;;;;;;;5.72;0.55;;;11.10;52.70;;;;;;5012825;28;20034;-75
2021/04/30 03:41:18;;;;;;;0.43;0.30;;;11.10;52.70;;;;;;5010370;28;20387;-76
2021/04/30 03:43:44;;;;;;;0.38;0.22;;;11.10;52.70;;;;;;5006723;28;20057;-76
2021/04/30 03:46:10;;;;;;;0.50;0.40;;;11.10;52.80;;;;;;5012041;28;20030;-75
2021/04/30 03:48:37;;;;;;;0.70;0.40;;;11.00;52.90;;;;;;5004125;28;20475;-75
2021/04/30 03:51:03;;;;;;;0.20;0.10;;;11.00;53.10;;;;;;5025670;28;20037;-75
2021/04/30 03:53:29;;;;;;;2.13;0.47;;;11.00;53.20;;;;;;5007277;28;20041;-75
2021/04/30 03:55:55;;;;;;;0.63;0.22;;;10.90;53.20;;;;;;5010726;28;20424;-75
2021/04/30 03:58:21;;;;;;;0.55;0.25;;;10.90;53.30;;;;;;5016045;28;20431;-75
2021/04/30 04:00:47;;;;;;;12.55;0.70;;;10.80;53.30;;;;;;5001985;28;20045;-77
2021/04/30 04:03:13;;;;;;;0.10;0.00;;;10.80;53.30;;;;;;5012063;28;20042;-78
2021/04/30 04:05:40;;;;;;;1.15;0.43;;;10.80;53.30;;;;;;5005806;28;20034;-77
2021/04/30 04:08:08;;;;;;;0.20;0.10;;;10.70;53.40;;;;;;5030945;28;20042;-78
2021/04/30 04:10:37;;;;;;;0.30;0.10;;;10.70;53.40;;;;;;4998810;28;20591;-77
2021/04/30 04:13:17;;;;;;;0.40;0.17;;;10.70;53.50;;;;;;5008058;28;20038;-77
2021/04/30 04:15:46;;;;;;;1.80;0.95;;;10.60;53.60;;;;;;5007844;28;20049;-78
2021/04/30 04:18:13;;;;;;;0.82;0.52;;;10.60;53.60;;;;;;5007853;28;20185;-76
2021/04/30 04:20:39;;;;;;;0.55;0.13;;;10.60;53.70;;;;;;4988597;28;20045;-76
2021/04/30 04:23:05;;;;;;;4.00;0.90;;;10.50;53.70;;;;;;5033116;28;20041;-78
2021/04/30 04:25:31;;;;;;;0.50;0.38;;;10.50;53.70;;;;;;5019815;28;20030;-76
2021/04/30 04:27:57;;;;;;;3.25;0.45;;;10.40;53.70;;;;;;5005536;28;20030;-77
2021/04/30 04:30:24;;;;;;;0.17;0.08;;;10.50;53.70;;;;;;4992350;28;20034;-77
2021/04/30 04:32:50;;;;;;;0.73;0.25;;;10.40;53.70;;;;;;5042934;28;20396;-77
2021/04/30 04:35:16;;;;;;;4.30;0.22;;;10.50;53.70;;;;;;5031005;28;20031;-77
2021/04/30 04:37:42;;;;;;;1.45;0.30;;;10.50;53.70;;;;;;5025050;28;20506;-77
2021/04/30 04:40:09;;;;;;;1.40;0.25;;;10.40;53.60;;;;;;4986021;28;20413;-77
2021/04/30 04:42:35;;;;;;;0.68;0.25;;;10.40;53.70;;;;;;5016192;28;20030;-77
2021/04/30 04:45:02;;;;;;;1.48;0.77;;;10.40;54.30;;;;;;5001075;28;20046;-78
2021/04/30 04:47:28;;;;;;;0.68;0.17;;;10.40;53.80;;;;;;4986301;28;20034;-75
2021/04/30 04:49:54;;;;;;;1.83;0.85;;;10.30;53.70;;;;;;4989083;28;20026;-78
2021/04/30 04:52:20;;;;;;;0.60;0.45;;;10.30;53.80;;;;;;4987039;28;20038;-79
2021/04/30 04:54:46;;;;;;;3.00;1.20;;;10.30;53.90;;;;;;4989362;28;20391;-76
2021/04/30 04:57:12;;;;;;;0.88;0.60;;;10.20;53.80;;;;;;4977238;28;20031;-79
2021/04/30 04:59:38;;;;;;;1.92;0.38;;;10.30;53.90;;;;;;4988677;28;20034;-79
2021/04/30 05:02:04;;;;;;;0.52;0.20;;;10.20;54.00;;;;;;4982513;28;20035;-78
2021/04/30 05:04:30;;;;;;;1.20;0.30;;;10.20;54.00;;;;;;4984473;28;20408;-79
2021/04/30 05:06:56;;;;;;;0.32;0.20;;;10.10;54.00;;;;;;4981726;28;20029;-79
2021/04/30 05:09:23;;;;;;;0.88;0.28;;;10.10;54.10;;;;;;4994255;28;20467;-79
2021/04/30 05:11:49;;;;;;;0.47;0.15;;;10.10;54.00;;;;;;4977227;28;20034;-78
2021/04/30 05:14:15;;;;;;;1.08;0.55;;;10.20;54.10;;;;;;4983255;28;20030;-78
2021/04/30 05:16:41;;;;;;;0.43;0.15;;;10.20;54.20;;;;;;4976288;28;20119;-79
2021/04/30 05:19:08;;;;;;;2.08;0.20;;;10.10;54.30;;;;;;4982549;28;20042;-80
2021/04/30 05:21:35;;;;;;;1.08;0.45;;;10.00;54.30;;;;;;4991518;28;20034;-79
2021/04/30 05:24:01;;;;;;;1.17;0.57;;;10.10;54.40;;;;;;4990543;28;20053;-79
2021/04/30 05:26:30;;;;;;;4.38;0.98;;;10.10;54.30;;;;;;4992975;28;20349;-78
2021/04/30 05:28:57;;;;;;;0.30;0.20;;;10.20;54.30;;;;;;4991300;28;20038;-76
2021/04/30 05:31:23;;;;;;;1.65;0.65;;;10.20;54.20;;;;;;4988333;28;20395;-79
2021/04/30 05:33:49;;;;;;;0.22;0.00;;;10.30;54.20;;;;;;4988617;28;20049;-78
2021/04/30 05:36:15;;;;;;;0.68;0.40;;;10.30;54.20;;;;;;4990028;28;20034;-78
2021/04/30 05:38:41;;;;;;;1.77;0.90;;;10.30;54.20;;;;;;4992129;28;20034;-79
2021/04/30 05:41:07;;;;;;;1.30;0.50;;;10.30;54.10;;;;;;4990663;28;20436;-79
2021/04/30 05:43:33;;;;;;;1.70;0.50;;;10.40;54.10;;;;;;4990505;28;20041;-79
2021/04/30 05:46:00;;;;;;;1.30;0.57;;;10.50;54.00;;;;;;4989961;28;20049;-79
2021/04/30 05:48:26;;;;;;;0.28;0.28;;;10.60;53.90;;;;;;4975020;28;20342;-79
2021/04/30 05:50:52;;;;;;;0.22;0.10;;;10.70;53.90;;;;;;4990447;28;20042;-78
2021/04/30 05:53:18;;;;;;;1.63;0.38;;;10.80;53.80;;;;;;4988921;28;20384;-79
2021/04/30 05:55:44;;;;;;;0.85;0.20;;;10.90;53.80;;;;;;4998401;28;20408;-79
2021/04/30 05:58:10;;;;;;;0.30;0.15;;;11.00;53.70;;;;;;4982893;28;20042;-79
2021/04/30 06:00:36;;;;;;;2.88;0.32;;;11.10;53.60;;;;;;4990513;28;20038;-80
2021/04/30 06:03:02;;;;;;;0.77;0.32;;;11.20;53.40;;;;;;4974920;28;20030;-80
2021/04/30 06:05:28;;;;;;;9.52;0.85;;;11.30;53.30;;;;;;5016475;28;20426;-79
2021/04/30 06:07:54;;;;;;;0.65;0.43;;;11.40;53.30;;;;;;4988181;28;20057;-79
2021/04/30 06:10:21;;;;;;;1.50;0.20;;;11.50;53.20;;;;;;4989282;28;20045;-79
2021/04/30 06:12:47;;;;;;;3.42;1.15;;;11.50;53.30;;;;;;4985517;28;20498;-80
2021/04/30 06:15:13;;;;;;;0.57;0.30;;;11.50;53.20;;;;;;4988946;28;20040;-81
2021/04/30 06:17:39;;;;;;;1.60;0.73;;;11.60;53.20;;;;;;4981043;28;20498;-79
2021/04/30 06:20:06;;;;;;;0.28;0.20;;;11.70;53.10;;;;;;4987978;28;20045;-80
2021/04/30 06:22:32;;;;;;;1.00;0.38;;;11.80;53.00;;;;;;4986289;28;20041;-81
2021/04/30 06:24:58;;;;;;;0.43;0.20;;;11.90;53.00;;;;;;4991453;28;20042;-79
2021/04/30 06:27:25;;;;;;;0.30;0.05;;;11.90;53.00;;;;;;5004084;28;20023;-79
2021/04/30 06:29:51;;;;;;;0.93;0.15;;;11.90;53.00;;;;;;4990459;28;20467;-79
2021/04/30 06:32:17;;;;;;;0.55;0.10;;;12.00;53.00;;;;;;4995628;28;20030;-80
2021/04/30 06:34:43;;;;;;;0.15;0.08;;;12.00;52.90;;;;;;4989888;28;20034;-81
2021/04/30 06:37:09;;;;;;;2.17;0.20;;;12.10;53.00;;;;;;4988621;28;20061;-80
2021/04/30 06:39:35;;;;;;;0.30;0.10;;;12.10;52.90;;;;;;5023332;28;20041;-80
2021/04/30 06:42:02;;;;;;;1.15;0.70;;;12.20;52.80;;;;;;4973922;28;20522;-80
2021/04/30 06:44:31;;;;;;;1.60;0.40;;;12.50;52.60;;;;;;4987592;28;20042;-80
2021/04/30 06:46:58;;;;;;;1.02;0.57;;;12.60;52.30;;;;;;4978388;28;20404;-80
2021/04/30 06:49:24;;;;;;;0.73;0.35;;;12.70;52.20;;;;;;4995284;28;20047;-79
2021/04/30 06:51:50;;;;;;;0.88;0.47;;;12.80;52.20;;;;;;4980343;28;20026;-81
2021/04/30 06:54:17;;;;;;;1.52;0.73;;;12.80;52.10;;;;;;5000289;28;20385;-80
2021/04/30 06:56:43;;;;;;;1.30;0.43;;;12.90;52.00;;;;;;4974971;28;20039;-81
2021/04/30 06:59:09;;;;;;;0.08;0.00;;;13.10;52.00;;;;;;4985258;28;20064;-79
2021/04/30 07:01:35;;;;;;;0.73;0.10;;;13.20;51.90;;;;;;4983989;28;20038;-79
2021/04/30 07:04:01;;;;;;;0.38;0.15;;;13.30;51.70;;;;;;4988275;28;20046;-80
2021/04/30 07:06:27;;;;;;;1.30;0.20;;;13.30;51.60;;;;;;4986784;28;20030;-81
2021/04/30 07:08:54;;;;;;;1.33;0.45;;;13.40;51.50;;;;;;4982759;28;20041;-81
2021/04/30 07:11:20;;;;;;;0.75;0.30;;;13.50;51.40;;;;;;4986109;28;20026;-80
2021/04/30 07:13:46;;;;;;;1.15;0.60;;;13.70;51.30;;;;;;4986957;28;20033;-80
2021/04/30 07:16:12;;;;;;;0.68;0.22;;;13.80;51.30;;;;;;4966305;28;20039;-79
2021/04/30 07:18:38;;;;;;;0.40;0.32;;;13.90;51.20;;;;;;4979429;28;20027;-82
2021/04/30 07:21:05;;;;;;;0.40;0.30;;;14.10;50.90;;;;;;4994980;28;20510;-80
2021/04/30 07:23:33;;;;;;;4.20;0.60;;;14.20;50.90;;;;;;5022972;28;20026;-81
2021/04/30 07:26:01;;;;;;;0.32;0.13;;;14.20;50.90;;;;;;4983370;28;20043;-81
2021/04/30 07:28:27;;;;;;;2.17;0.82;;;14.40;50.80;;;;;;5001752;28;20035;-82
2021/04/30 07:30:53;;;;;;;1.52;0.45;;;14.50;50.60;;;;;;4981206;28;20399;-80
2021/04/30 07:33:19;;;;;;;2.10;0.80;;;14.60;50.40;;;;;;4992666;28;20030;-80
2021/04/30 07:35:45;;;;;;;0.55;0.30;;;14.60;50.20;;;;;;4992678;28;20026;-79
2021/04/30 07:38:12;;;;;;;1.55;0.82;;;14.70;50.20;;;;;;4978962;28;20097;-79
2021/04/30 07:40:39;;;;;;;0.60;0.20;;;14.70;50.20;;;;;;4986914;28;20391;-78
2021/04/30 07:43:11;;;;;;;1.75;0.57;;;14.80;50.20;;;;;;4983163;28;20038;-79
2021/04/30 07:45:38;;;;;;;1.35;0.52;;;14.90;50.10;;;;;;4989775;28;20086;-78
2021/04/30 07:48:05;;;;;;;0.30;0.10;;;15.00;49.90;;;;;;4986602;28;20034;-78
2021/04/30 07:50:31;;;;;;;0.20;0.05;;;15.10;49.80;;;;;;4978477;28;20045;-79
2021/04/30 07:52:57;;;;;;;2.60;0.90;;;15.20;49.60;;;;;;5014484;28;20487;-79
2021/04/30 07:55:23;;;;;;;1.02;0.45;;;15.30;49.50;;;;;;4989327;28;20034;-78
2021/04/30 07:57:49;;;;;;;2.03;0.55;;;15.40;49.50;;;;;;4990936;28;20030;-79
2021/04/30 08:00:15;;;;;;;1.80;0.63;;;15.50;49.30;;;;;;4990848;28;20118;-78
2021/04/30 08:02:42;;;;;;;1.02;0.50;;;15.60;49.20;;;;;;4978512;28;20039;-78
2021/04/30 08:05:08;;;;;;;1.55;0.63;;;15.70;49.10;;;;;;4979527;28;20483;-78
2021/04/30 08:07:35;;;;;;;1.60;0.43;;;15.80;49.10;;;;;;5002720;28;20400;-78
2021/04/30 08:10:01;;;;;;;3.80;0.85;;;15.90;48.90;;;;;;4986265;28;20039;-78
2021/04/30 08:12:27;;;;;;;2.65;0.73;;;16.00;48.80;;;;;;4977029;28;20042;-78
2021/04/30 08:14:53;;;;;;;0.60;0.30;;;16.30;49.20;;;;;;4992184;28;20042;-78
2021/04/30 08:17:19;;;;;;;0.45;0.20;;;16.60;48.30;;;;;;4977358;28;20039;-78
2021/04/30 08:19:45;;;;;;;8.55;0.60;;;16.80;47.90;;;;;;4983154;28;20043;-79
2021/04/30 08:22:11;;;;;;;1.05;0.35;;;17.00;47.70;;;;;;5000387;28;20058;-78
2021/04/30 08:24:37;;;;;;;1.30;0.68;;;17.10;47.60;;;;;;4991221;28;20042;-79
2021/04/30 08:27:04;;;;;;;0.85;0.50;;;17.10;47.40;;;;;;4992549;28;20033;-79
2021/04/30 08:29:30;;;;;;;1.05;0.45;;;17.00;47.50;;;;;;4978097;28;20046;-78
2021/04/30 08:31:56;;;;;;;7.80;0.65;;;17.00;47.50;;;;;;4985030;28;20395;-78
2021/04/30 08:34:22;;;;;;;2.33;0.80;;;17.10;47.50;;;;;;4986523;28;20030;-79
2021/04/30 08:36:48;;;;;;;2.13;0.85;;;17.20;48.00;;;;;;4982102;28;20387;-79
2021/04/30 08:39:14;;;;;;;2.55;0.43;;;17.40;47.20;;;;;;4989489;28;20022;-79
2021/04/30 08:41:41;;;;;;;2.13;0.63;;;17.60;47.00;;;;;;4979734;28;20031;-78
2021/04/30 08:44:08;;;;;;;1.60;0.30;;;17.90;46.70;;;;;;4978342;28;20050;-78
2021/04/30 08:46:35;;;;;;;5.32;0.88;;;18.30;46.20;;;;;;4996883;28;20060;-78
2021/04/30 08:49:09;;;;;;;1.23;0.47;;;18.40;46.00;;;;;;5041448;28;20353;-79
2021/04/30 08:51:36;;;;;;;1.15;0.50;;;18.40;45.90;;;;;;5016729;28;20383;-78
2021/04/30 08:54:03;;;;;;;1.30;0.52;;;18.40;45.90;;;;;;5021704;28;20038;-78
2021/04/30 08:56:29;;;;;;;2.33;0.93;;;18.40;46.50;;;;;;5023076;28;20034;-79
2021/04/30 08:58:55;;;;;;;0.52;0.30;;;18.30;46.00;;;;;;5007453;28;20042;-81
2021/04/30 09:01:21;;;;;;;0.70;0.50;;;18.40;46.00;;;;;;4999519;28;20038;-79
2021/04/30 09:03:48;;;;;;;1.60;0.82;;;18.50;45.90;;;;;;4993406;28;20391;-78
2021/04/30 09:06:18;;;;;;;7.15;1.63;;;18.50;45.70;;;;;;4993392;28;20061;-79
2021/04/30 09:08:49;;;;;;;7.70;0.55;;;18.50;45.70;;;;;;4977918;28;20048;-78
2021/04/30 09:11:34;;;;;;;6.57;1.07;;;18.60;45.60;;;;;;4993164;28;20057;-79
2021/04/30 09:14:32;;;;;;;1.67;0.88;;;18.60;45.60;;;;;;4987830;28;20274;-79
2021/04/30 09:17:09;;;;;;;2.83;0.70;;;18.70;45.60;;;;;;4987763;28;20035;-78
2021/04/30 09:19:38;;;;;;;1.83;0.95;;;18.90;45.50;;;;;;4983865;28;20365;-80
2021/04/30 09:22:06;;;;;;;1.42;0.32;;;18.90;45.10;;;;;;4980252;28;20026;-80
2021/04/30 09:24:33;;;;;;;0.93;0.70;;;18.80;45.00;;;;;;4997775;28;20049;-85
2021/04/30 09:26:59;;;;;;;0.85;0.40;;;18.80;45.10;;;;;;5006119;28;20030;-83
2021/04/30 09:29:27;;;;;;;3.03;1.08;;;19.00;45.10;;;;;;4978848;28;20031;-84
2021/04/30 09:31:53;;;;;;;1.38;0.50;;;19.10;44.80;;;;;;4986533;28;20038;-79
2021/04/30 09:34:27;;;;;;;3.78;0.55;;;19.20;44.70;;;;;;4984169;28;20037;-79
2021/04/30 09:37:02;;;;;;;0.40;0.20;;;19.10;44.60;;;;;;4981616;28;20031;-79
2021/04/30 09:39:28;;;;;;;1.63;0.88;;;19.10;44.60;;;;;;4978866;28;20027;-79
2021/04/30 09:42:13;;;;;;;0.95;0.30;;;19.20;44.60;;;;;;4961303;28;20065;-81
2021/04/30 09:44:41;;;;;;;0.50;0.20;;;19.30;44.50;;;;;;4995291;28;20039;-82
2021/04/30 09:47:28;;;;;;;3.05;0.68;;;19.30;44.20;;;;;;4994706;28;20472;-84
2021/04/30 09:50:01;;;;;;;1.30;0.40;;;19.30;44.30;;;;;;4983312;28;20041;-81
2021/04/30 09:52:29;;;;;;;11.77;0.70;;;19.30;44.40;;;;;;5006906;28;20035;-84
2021/04/30 09:55:00;;;;;;;2.05;0.85;;;19.20;44.20;;;;;;4980805;28;20034;-81
2021/04/30 09:57:27;;;;;;;1.83;0.52;;;19.40;44.10;;;;;;4980960;28;20498;-82
2021/04/30 10:00:11;;;;;;;0.82;0.30;;;19.40;43.90;;;;;;4966066;28;20506;-79
2021/04/30 10:02:37;;;;;;;2.53;0.65;;;19.50;43.70;;;;;;4980540;28;20035;-82
2021/04/30 10:05:22;;;;;;;1.00;0.40;;;19.50;43.40;;;;;;4983207;28;20055;-81
2021/04/30 10:07:48;;;;;;;0.00;0.00;;;19.40;43.30;;;;;;4986758;28;20384;-83
2021/04/30 10:10:16;;;;;;;1.08;0.47;;;19.50;43.30;;;;;;4999612;28;20047;-81
2021/04/30 10:12:49;;;;;;;0.80;0.25;;;19.50;43.10;;;;;;4991592;28;20041;-79
2021/04/30 10:15:19;;;;;;;1.83;0.85;;;19.50;42.80;;;;;;5017587;28;20023;-78
2021/04/30 10:17:48;;;;;;;1.55;0.40;;;19.50;42.60;;;;;;4984272;28;20027;-82
2021/04/30 10:20:16;;;;;;;2.08;0.57;;;19.60;42.50;;;;;;4990818;28;20042;-82
2021/04/30 10:22:43;;;;;;;2.13;0.65;;;19.60;42.40;;;;;;4980699;28;20046;-79
2021/04/30 10:25:11;;;;;;;2.75;0.40;;;19.70;42.30;;;;;;5017140;28;20043;-79
2021/04/30 10:27:38;;;;;;;2.15;0.47;;;19.80;42.10;;;;;;4992666;28;20035;-78
2021/04/30 10:30:12;;;;;;;1.58;0.95;;;20.00;41.90;;;;;;5008334;28;20022;-78
2021/04/30 10:33:32;;;;;;;3.38;1.55;;;20.20;41.60;;;;;;4991711;28;20042;-79
2021/04/30 10:36:13;;;;;;;4.88;0.80;;;20.40;41.20;;;;;;4935994;28;20063;-77
2021/04/30 10:38:45;;;;;;;2.78;0.60;;;20.50;41.00;;;;;;4931298;29;20062;-81
2021/04/30 10:41:11;;;;;;;0.82;0.38;;;20.60;40.70;;;;;;4898408;29;20040;-83
2021/04/30 10:43:38;;;;;;;3.70;0.20;;;20.70;40.50;;;;;;4932377;29;20051;-81
2021/04/30 10:46:14;;;;;;;0.85;0.40;;;20.70;40.20;;;;;;4916214;29;20124;-82
2021/04/30 10:49:05;;;;;;;0.82;0.40;;;20.60;40.80;;;;;;4936814;29;20039;-79
2021/04/30 10:51:32;;;;;;;2.00;0.95;;;20.70;40.10;;;;;;4936843;28;20046;-79
2021/04/30 10:54:36;;;;;;;0.70;0.28;;;20.80;40.00;;;;;;4929558;29;20051;-80
2021/04/30 10:57:12;;;;;;;0.30;0.10;;;20.80;39.80;;;;;;4952999;28;20407;-80
2021/04/30 10:59:39;;;;;;;4.60;0.40;;;20.80;39.70;;;;;;4906945;28;20489;-79
2021/04/30 11:02:29;;;;;;;0.13;0.03;;;20.70;39.70;;;;;;4951295;28;20444;-79
2021/04/30 11:05:06;;;;;;;6.88;0.50;;;20.80;39.80;;;;;;4937224;29;20382;-81
2021/04/30 11:07:35;;;;;;;1.15;0.40;;;20.90;39.70;;;;;;4938528;29;20039;-81
2021/04/30 11:10:20;;;;;;;2.17;0.38;;;21.00;39.40;;;;;;4969322;28;20042;-85
2021/04/30 11:13:16;;;;;;;2.08;0.75;;;20.90;39.10;;;;;;4999685;28;20039;-80
2021/04/30 11:15:47;;;;;;;0.68;0.20;;;20.90;39.00;;;;;;4972244;28;20027;-80
2021/04/30 11:18:14;;;;;;;0.22;0.17;;;20.80;38.80;;;;;;4994304;28;20046;-82
2021/04/30 11:20:41;;;;;;;0.98;0.20;;;20.40;39.00;;;;;;4992023;28;20042;-83
2021/04/30 11:23:23;;;;;;;3.42;0.65;;;20.10;39.40;;;;;;4991826;28;20042;-84
2021/04/30 11:25:58;;;;;;;1.02;0.47;;;19.80;39.60;;;;;;4989989;28;20045;-83
2021/04/30 11:28:30;;;;;;;0.80;0.45;;;19.90;39.70;;;;;;4983403;28;20042;-80
2021/04/30 11:30:59;;;;;;;2.35;0.35;;;20.20;39.50;;;;;;4989813;28;20483;-82
2021/04/30 11:33:25;;;;;;;0.98;0.40;;;20.40;39.10;;;;;;4986122;28;20484;-83
2021/04/30 11:35:52;;;;;;;1.27;0.45;;;20.70;38.90;;;;;;4993810;28;20049;-81
2021/04/30 11:38:18;;;;;;;1.38;0.60;;;21.10;38.60;;;;;;4989019;28;20031;-82
2021/04/30 11:40:56;;;;;;;4.40;0.73;;;21.40;38.10;;;;;;4972631;28;20046;-82
2021/04/30 11:43:22;;;;;;;0.90;0.35;;;21.50;37.80;;;;;;4998324;28;20035;-82
2021/04/30 11:45:51;;;;;;;1.35;0.43;;;21.40;37.90;;;;;;4982458;28;20093;-81
2021/04/30 11:48:24;;;;;;;2.13;0.55;;;21.20;38.00;;;;;;4990191;28;20027;-81
2021/04/30 11:51:06;;;;;;;1.13;0.43;;;21.00;38.40;;;;;;4991093;28;20506;-81
2021/04/30 11:53:36;;;;;;;0.40;0.20;;;20.90;38.80;;;;;;5020084;28;20039;-81
2021/04/30 11:56:04;;;;;;;0.63;0.20;;;21.00;39.00;;;;;;4973561;28;20050;-81
2021/04/30 11:58:44;;;;;;;18.42;0.38;;;21.10;38.80;;;;;;4991027;28;20030;-81
2021/04/30 12:01:11;;;;;;;2.08;0.30;;;21.30;39.10;;;;;;5019362;28;20034;-80
2021/04/30 12:03:43;;;;;;;0.98;0.32;;;21.50;38.40;;;;;;4982543;28;20047;-81
2021/04/30 12:06:14;;;;;;;0.73;0.30;;;21.60;38.30;;;;;;4978399;28;20471;-80
2021/04/30 12:08:44;;;;;;;2.55;0.60;;;21.60;38.20;;;;;;4973530;28;20491;-79
2021/04/30 12:11:31;;;;;;;0.70;0.30;;;21.50;38.40;;;;;;4987894;28;20041;-79
2021/04/30 12:14:01;;;;;;;0.47;0.22;;;21.40;38.50;;;;;;5010585;28;20050;-79
2021/04/30 12:16:27;;;;;;;1.23;0.43;;;21.30;38.40;;;;;;4983892;28;20035;-79
2021/04/30 12:18:55;;;;;;;0.57;0.13;;;21.30;38.20;;;;;;4987794;28;20046;-79
2021/04/30 12:21:25;;;;;;;0.93;0.32;;;21.30;38.20;;;;;;4992102;28;20033;-79
2021/04/30 12:23:51;;;;;;;1.58;0.40;;;21.30;38.00;;;;;;5004674;28;20037;-79
2021/04/30 12:26:24;;;;;;;1.27;0.43;;;21.30;37.90;;;;;;5012291;28;20512;-79
2021/04/30 12:28:50;;;;;;;1.38;0.45;;;21.30;37.90;;;;;;5019726;28;20365;-79
2021/04/30 12:31:16;;;;;;;1.27;0.52;;;21.20;37.90;;;;;;4986315;28;20507;-79
2021/04/30 12:33:44;;;;;;;0.60;0.20;;;21.40;37.80;;;;;;5013858;28;20045;-79
2021/04/30 12:36:18;;;;;;;1.17;0.20;;;21.50;37.50;;;;;;4978346;28;20026;-80
2021/04/30 12:38:46;;;;;;;0.10;0.03;;;21.60;37.10;;;;;;4988577;28;20041;-80
2021/04/30 12:41:20;;;;;;;0.00;0.00;;;21.50;36.90;;;;;;5020371;28;20471;-80
2021/04/30 12:43:48;;;;;;;0.65;0.22;;;21.30;36.60;;;;;;4991344;28;20045;-80
2021/04/30 12:46:16;;;;;;;0.50;0.10;;;21.00;36.60;;;;;;4991095;28;20500;-79
2021/04/30 12:48:44;;;;;;;1.30;0.60;;;20.90;36.80;;;;;;4972252;28;20043;-80
2021/04/30 12:51:11;;;;;;;0.85;0.28;;;20.80;36.50;;;;;;4991909;28;20030;-79